sensor_id;sensor_type;location;lat;lon;timestamp;P1;durP1;ratioP1;P2;durP2;ratioP2
36691;SDS011;22678;52.052;4.242;2024-03-22T00:01:40;33.83;;;13.43;;
36691;SDS011;22678;52.052;4.242;2024-03-22T00:04:05;28.27;;;13.57;;
36691;SDS011;22678;52.052;4.242;2024-03-22T00:06:31;36.22;;;17.73;;
36691;SDS011;22678;52.052;4.242;2024-03-22T00:08:56;37.97;;;18.10;;
36691;SDS011;22678;52.052;4.242;2024-03-22T00:11:22;39.10;;;17.35;;
36691;SDS011;22678;52.052;4.242;2024-03-22T00:13:47;38.88;;;16.40;;
36691;SDS011;22678;52.052;4.242;2024-03-22T00:16:12;38.97;;;16.67;;
36691;SDS011;22678;52.052;4.242;2024-03-22T00:18:38;40.63;;;16.27;;
36691;SDS011;22678;52.052;4.242;2024-03-22T00:21:03;50.20;;;20.33;;
36691;SDS011;22678;52.052;4.242;2024-03-22T00:23:28;46.03;;;16.35;;
36691;SDS011;22678;52.052;4.242;2024-03-22T00:25:55;43.03;;;16.63;;
36691;SDS011;22678;52.052;4.242;2024-03-22T00:28:21;41.22;;;18.98;;
36691;SDS011;22678;52.052;4.242;2024-03-22T00:30:46;47.13;;;19.23;;
36691;SDS011;22678;52.052;4.242;2024-03-22T00:33:12;45.22;;;17.33;;
36691;SDS011;22678;52.052;4.242;2024-03-22T00:35:37;43.80;;;18.25;;
36691;SDS011;22678;52.052;4.242;2024-03-22T00:38:02;39.92;;;15.90;;
36691;SDS011;22678;52.052;4.242;2024-03-22T00:40:28;40.00;;;15.75;;
36691;SDS011;22678;52.052;4.242;2024-03-22T00:42:53;37.05;;;14.52;;
36691;SDS011;22678;52.052;4.242;2024-03-22T00:45:19;39.63;;;12.35;;
36691;SDS011;22678;52.052;4.242;2024-03-22T00:47:44;40.28;;;15.52;;
36691;SDS011;22678;52.052;4.242;2024-03-22T00:50:09;45.45;;;15.13;;
36691;SDS011;22678;52.052;4.242;2024-03-22T00:52:34;26.83;;;12.60;;
36691;SDS011;22678;52.052;4.242;2024-03-22T00:55:00;34.03;;;13.40;;
36691;SDS011;22678;52.052;4.242;2024-03-22T00:57:25;32.45;;;16.55;;
36691;SDS011;22678;52.052;4.242;2024-03-22T00:59:50;33.15;;;11.77;;
36691;SDS011;22678;52.052;4.242;2024-03-22T01:02:16;24.30;;;11.27;;
36691;SDS011;22678;52.052;4.242;2024-03-22T01:04:41;20.60;;;10.45;;
36691;SDS011;22678;52.052;4.242;2024-03-22T01:07:06;18.48;;;9.88;;
36691;SDS011;22678;52.052;4.242;2024-03-22T01:09:32;16.88;;;7.07;;
36691;SDS011;22678;52.052;4.242;2024-03-22T01:11:57;20.10;;;7.35;;
36691;SDS011;22678;52.052;4.242;2024-03-22T01:14:22;26.58;;;7.93;;
36691;SDS011;22678;52.052;4.242;2024-03-22T01:16:48;11.05;;;4.70;;
36691;SDS011;22678;52.052;4.242;2024-03-22T01:19:13;11.07;;;4.70;;
36691;SDS011;22678;52.052;4.242;2024-03-22T01:21:38;11.35;;;5.10;;
36691;SDS011;22678;52.052;4.242;2024-03-22T01:24:03;10.00;;;4.60;;
36691;SDS011;22678;52.052;4.242;2024-03-22T01:26:29;11.25;;;5.60;;
36691;SDS011;22678;52.052;4.242;2024-03-22T01:28:54;14.02;;;6.93;;
36691;SDS011;22678;52.052;4.242;2024-03-22T01:31:19;13.98;;;5.65;;
36691;SDS011;22678;52.052;4.242;2024-03-22T01:33:45;18.08;;;6.47;;
36691;SDS011;22678;52.052;4.242;2024-03-22T01:36:10;10.02;;;5.47;;
36691;SDS011;22678;52.052;4.242;2024-03-22T01:38:35;16.83;;;8.35;;
36691;SDS011;22678;52.052;4.242;2024-03-22T01:41:01;17.02;;;6.18;;
36691;SDS011;22678;52.052;4.242;2024-03-22T01:43:26;19.35;;;7.28;;
36691;SDS011;22678;52.052;4.242;2024-03-22T01:45:51;16.77;;;7.20;;
36691;SDS011;22678;52.052;4.242;2024-03-22T01:48:17;16.08;;;7.60;;
36691;SDS011;22678;52.052;4.242;2024-03-22T01:50:42;17.63;;;6.05;;
36691;SDS011;22678;52.052;4.242;2024-03-22T01:53:08;14.88;;;5.85;;
36691;SDS011;22678;52.052;4.242;2024-03-22T01:55:34;17.35;;;7.38;;
36691;SDS011;22678;52.052;4.242;2024-03-22T01:57:59;16.92;;;6.50;;
36691;SDS011;22678;52.052;4.242;2024-03-22T02:00:25;18.13;;;7.13;;
36691;SDS011;22678;52.052;4.242;2024-03-22T02:02:50;17.33;;;7.22;;
36691;SDS011;22678;52.052;4.242;2024-03-22T02:05:16;14.48;;;6.50;;
36691;SDS011;22678;52.052;4.242;2024-03-22T02:07:46;19.45;;;7.15;;
36691;SDS011;22678;52.052;4.242;2024-03-22T02:10:12;16.23;;;5.22;;
36691;SDS011;22678;52.052;4.242;2024-03-22T02:12:38;18.13;;;9.45;;
36691;SDS011;22678;52.052;4.242;2024-03-22T02:15:04;14.15;;;7.45;;
36691;SDS011;22678;52.052;4.242;2024-03-22T02:17:31;21.52;;;5.40;;
36691;SDS011;22678;52.052;4.242;2024-03-22T02:19:57;23.70;;;6.57;;
36691;SDS011;22678;52.052;4.242;2024-03-22T02:22:22;18.52;;;6.53;;
36691;SDS011;22678;52.052;4.242;2024-03-22T02:24:47;17.65;;;5.07;;
36691;SDS011;22678;52.052;4.242;2024-03-22T02:27:13;13.80;;;4.72;;
36691;SDS011;22678;52.052;4.242;2024-03-22T02:29:38;25.52;;;5.72;;
36691;SDS011;22678;52.052;4.242;2024-03-22T02:32:03;20.88;;;6.70;;
36691;SDS011;22678;52.052;4.242;2024-03-22T02:34:29;20.48;;;7.28;;
36691;SDS011;22678;52.052;4.242;2024-03-22T02:36:54;18.33;;;7.10;;
36691;SDS011;22678;52.052;4.242;2024-03-22T02:39:20;18.73;;;5.97;;
36691;SDS011;22678;52.052;4.242;2024-03-22T02:41:45;21.20;;;5.40;;
36691;SDS011;22678;52.052;4.242;2024-03-22T02:44:10;17.08;;;7.07;;
36691;SDS011;22678;52.052;4.242;2024-03-22T02:46:36;16.23;;;5.88;;
36691;SDS011;22678;52.052;4.242;2024-03-22T02:49:01;18.70;;;4.80;;
36691;SDS011;22678;52.052;4.242;2024-03-22T02:51:26;18.02;;;5.32;;
36691;SDS011;22678;52.052;4.242;2024-03-22T02:53:52;15.15;;;5.20;;
36691;SDS011;22678;52.052;4.242;2024-03-22T02:56:17;15.40;;;5.38;;
36691;SDS011;22678;52.052;4.242;2024-03-22T02:58:42;25.00;;;7.00;;
36691;SDS011;22678;52.052;4.242;2024-03-22T03:01:08;19.67;;;5.25;;
36691;SDS011;22678;52.052;4.242;2024-03-22T03:03:33;17.08;;;5.75;;
36691;SDS011;22678;52.052;4.242;2024-03-22T03:05:59;12.48;;;4.18;;
36691;SDS011;22678;52.052;4.242;2024-03-22T03:08:24;12.85;;;4.93;;
36691;SDS011;22678;52.052;4.242;2024-03-22T03:10:49;21.45;;;4.82;;
36691;SDS011;22678;52.052;4.242;2024-03-22T03:13:15;16.05;;;5.05;;
36691;SDS011;22678;52.052;4.242;2024-03-22T03:15:40;24.23;;;6.32;;
36691;SDS011;22678;52.052;4.242;2024-03-22T03:18:05;21.50;;;6.47;;
36691;SDS011;22678;52.052;4.242;2024-03-22T03:20:31;15.05;;;6.95;;
36691;SDS011;22678;52.052;4.242;2024-03-22T03:22:56;22.23;;;6.43;;
36691;SDS011;22678;52.052;4.242;2024-03-22T03:25:24;13.10;;;6.82;;
36691;SDS011;22678;52.052;4.242;2024-03-22T03:27:50;16.98;;;5.82;;
36691;SDS011;22678;52.052;4.242;2024-03-22T03:30:15;19.10;;;5.57;;
36691;SDS011;22678;52.052;4.242;2024-03-22T03:32:40;17.42;;;5.30;;
36691;SDS011;22678;52.052;4.242;2024-03-22T03:35:06;18.98;;;5.03;;
36691;SDS011;22678;52.052;4.242;2024-03-22T03:37:31;21.20;;;5.50;;
36691;SDS011;22678;52.052;4.242;2024-03-22T03:39:57;19.63;;;5.95;;
36691;SDS011;22678;52.052;4.242;2024-03-22T03:42:22;18.85;;;5.13;;
36691;SDS011;22678;52.052;4.242;2024-03-22T03:44:47;20.23;;;7.55;;
36691;SDS011;22678;52.052;4.242;2024-03-22T03:47:13;28.20;;;6.60;;
36691;SDS011;22678;52.052;4.242;2024-03-22T03:49:38;15.07;;;5.30;;
36691;SDS011;22678;52.052;4.242;2024-03-22T03:52:03;26.60;;;4.95;;
36691;SDS011;22678;52.052;4.242;2024-03-22T03:54:29;30.67;;;5.10;;
36691;SDS011;22678;52.052;4.242;2024-03-22T03:56:54;12.85;;;5.25;;
36691;SDS011;22678;52.052;4.242;2024-03-22T03:59:19;14.93;;;4.57;;
36691;SDS011;22678;52.052;4.242;2024-03-22T04:01:45;26.83;;;7.20;;
36691;SDS011;22678;52.052;4.242;2024-03-22T04:04:10;17.65;;;3.97;;
36691;SDS011;22678;52.052;4.242;2024-03-22T04:06:36;19.95;;;5.53;;
36691;SDS011;22678;52.052;4.242;2024-03-22T04:09:01;23.38;;;7.43;;
36691;SDS011;22678;52.052;4.242;2024-03-22T04:11:27;8.85;;;3.17;;
36691;SDS011;22678;52.052;4.242;2024-03-22T04:13:53;20.30;;;5.13;;
36691;SDS011;22678;52.052;4.242;2024-03-22T04:16:18;19.80;;;5.13;;
36691;SDS011;22678;52.052;4.242;2024-03-22T04:18:44;24.77;;;5.72;;
36691;SDS011;22678;52.052;4.242;2024-03-22T04:21:09;15.02;;;5.70;;
36691;SDS011;22678;52.052;4.242;2024-03-22T04:23:34;24.02;;;5.85;;
36691;SDS011;22678;52.052;4.242;2024-03-22T04:26:00;12.65;;;5.68;;
36691;SDS011;22678;52.052;4.242;2024-03-22T04:28:27;17.75;;;5.30;;
36691;SDS011;22678;52.052;4.242;2024-03-22T04:30:58;16.15;;;6.65;;
36691;SDS011;22678;52.052;4.242;2024-03-22T04:33:25;18.75;;;5.97;;
36691;SDS011;22678;52.052;4.242;2024-03-22T04:35:51;14.43;;;4.57;;
36691;SDS011;22678;52.052;4.242;2024-03-22T04:38:16;28.30;;;7.03;;
36691;SDS011;22678;52.052;4.242;2024-03-22T04:40:41;25.92;;;5.10;;
36691;SDS011;22678;52.052;4.242;2024-03-22T04:43:07;18.77;;;7.80;;
36691;SDS011;22678;52.052;4.242;2024-03-22T04:45:33;17.40;;;7.00;;
36691;SDS011;22678;52.052;4.242;2024-03-22T04:47:59;22.10;;;6.80;;
36691;SDS011;22678;52.052;4.242;2024-03-22T04:50:26;18.50;;;6.80;;
36691;SDS011;22678;52.052;4.242;2024-03-22T04:52:51;20.63;;;6.40;;
36691;SDS011;22678;52.052;4.242;2024-03-22T04:55:17;17.60;;;5.88;;
36691;SDS011;22678;52.052;4.242;2024-03-22T04:57:42;24.75;;;5.93;;
36691;SDS011;22678;52.052;4.242;2024-03-22T05:00:07;22.67;;;6.90;;
36691;SDS011;22678;52.052;4.242;2024-03-22T05:02:34;19.77;;;7.97;;
36691;SDS011;22678;52.052;4.242;2024-03-22T05:04:59;23.38;;;7.38;;
36691;SDS011;22678;52.052;4.242;2024-03-22T05:07:24;29.40;;;7.57;;
36691;SDS011;22678;52.052;4.242;2024-03-22T05:09:50;17.75;;;7.38;;
36691;SDS011;22678;52.052;4.242;2024-03-22T05:12:15;19.13;;;6.55;;
36691;SDS011;22678;52.052;4.242;2024-03-22T05:14:40;16.70;;;5.68;;
36691;SDS011;22678;52.052;4.242;2024-03-22T05:17:06;12.05;;;4.95;;
36691;SDS011;22678;52.052;4.242;2024-03-22T05:19:31;24.95;;;7.10;;
36691;SDS011;22678;52.052;4.242;2024-03-22T05:21:56;17.40;;;5.53;;
36691;SDS011;22678;52.052;4.242;2024-03-22T05:24:22;15.90;;;6.40;;
36691;SDS011;22678;52.052;4.242;2024-03-22T05:26:47;20.40;;;5.32;;
36691;SDS011;22678;52.052;4.242;2024-03-22T05:29:12;20.45;;;6.95;;
36691;SDS011;22678;52.052;4.242;2024-03-22T05:31:45;16.70;;;4.95;;
36691;SDS011;22678;52.052;4.242;2024-03-22T05:34:13;21.90;;;10.07;;
36691;SDS011;22678;52.052;4.242;2024-03-22T05:36:39;18.25;;;4.85;;
36691;SDS011;22678;52.052;4.242;2024-03-22T05:39:05;22.42;;;5.03;;
36691;SDS011;22678;52.052;4.242;2024-03-22T05:41:30;23.08;;;5.32;;
36691;SDS011;22678;52.052;4.242;2024-03-22T05:43:55;14.93;;;5.20;;
36691;SDS011;22678;52.052;4.242;2024-03-22T05:46:21;16.48;;;6.35;;
36691;SDS011;22678;52.052;4.242;2024-03-22T05:48:46;25.48;;;6.07;;
36691;SDS011;22678;52.052;4.242;2024-03-22T05:51:13;32.60;;;9.98;;
36691;SDS011;22678;52.052;4.242;2024-03-22T05:53:39;27.42;;;7.07;;
36691;SDS011;22678;52.052;4.242;2024-03-22T05:56:04;22.38;;;6.32;;
36691;SDS011;22678;52.052;4.242;2024-03-22T05:58:31;17.05;;;5.47;;
36691;SDS011;22678;52.052;4.242;2024-03-22T06:00:56;18.15;;;5.57;;
36691;SDS011;22678;52.052;4.242;2024-03-22T06:03:23;16.50;;;5.18;;
36691;SDS011;22678;52.052;4.242;2024-03-22T06:05:48;17.48;;;5.38;;
36691;SDS011;22678;52.052;4.242;2024-03-22T06:08:14;19.42;;;6.53;;
36691;SDS011;22678;52.052;4.242;2024-03-22T06:10:43;21.35;;;4.55;;
36691;SDS011;22678;52.052;4.242;2024-03-22T06:13:10;12.45;;;3.35;;
36691;SDS011;22678;52.052;4.242;2024-03-22T06:15:35;16.20;;;4.13;;
36691;SDS011;22678;52.052;4.242;2024-03-22T06:18:00;19.05;;;4.38;;
36691;SDS011;22678;52.052;4.242;2024-03-22T06:20:26;7.30;;;3.63;;
36691;SDS011;22678;52.052;4.242;2024-03-22T06:22:51;10.85;;;3.42;;
36691;SDS011;22678;52.052;4.242;2024-03-22T06:25:16;14.60;;;4.82;;
36691;SDS011;22678;52.052;4.242;2024-03-22T06:27:42;12.77;;;2.30;;
36691;SDS011;22678;52.052;4.242;2024-03-22T06:30:07;15.30;;;5.20;;
36691;SDS011;22678;52.052;4.242;2024-03-22T06:32:33;15.68;;;4.38;;
36691;SDS011;22678;52.052;4.242;2024-03-22T06:34:58;22.67;;;4.85;;
36691;SDS011;22678;52.052;4.242;2024-03-22T06:37:23;16.65;;;3.90;;
36691;SDS011;22678;52.052;4.242;2024-03-22T06:39:48;20.35;;;6.25;;
36691;SDS011;22678;52.052;4.242;2024-03-22T06:42:14;12.45;;;3.55;;
36691;SDS011;22678;52.052;4.242;2024-03-22T06:44:39;22.35;;;6.10;;
36691;SDS011;22678;52.052;4.242;2024-03-22T06:47:04;12.32;;;4.13;;
36691;SDS011;22678;52.052;4.242;2024-03-22T06:49:30;15.20;;;3.80;;
36691;SDS011;22678;52.052;4.242;2024-03-22T06:51:55;12.75;;;3.97;;
36691;SDS011;22678;52.052;4.242;2024-03-22T06:54:20;12.85;;;3.97;;
36691;SDS011;22678;52.052;4.242;2024-03-22T06:56:46;16.02;;;4.80;;
36691;SDS011;22678;52.052;4.242;2024-03-22T06:59:13;19.08;;;4.43;;
36691;SDS011;22678;52.052;4.242;2024-03-22T07:01:39;11.93;;;4.63;;
36691;SDS011;22678;52.052;4.242;2024-03-22T07:04:04;11.45;;;4.22;;
36691;SDS011;22678;52.052;4.242;2024-03-22T07:06:29;13.82;;;4.05;;
36691;SDS011;22678;52.052;4.242;2024-03-22T07:08:55;15.40;;;4.53;;
36691;SDS011;22678;52.052;4.242;2024-03-22T07:11:20;17.70;;;5.82;;
36691;SDS011;22678;52.052;4.242;2024-03-22T07:13:47;19.17;;;5.90;;
36691;SDS011;22678;52.052;4.242;2024-03-22T07:16:12;15.48;;;3.65;;
36691;SDS011;22678;52.052;4.242;2024-03-22T07:18:38;14.10;;;3.70;;
36691;SDS011;22678;52.052;4.242;2024-03-22T07:21:03;16.65;;;4.88;;
36691;SDS011;22678;52.052;4.242;2024-03-22T07:23:29;12.52;;;3.33;;
36691;SDS011;22678;52.052;4.242;2024-03-22T07:25:54;17.00;;;4.25;;
36691;SDS011;22678;52.052;4.242;2024-03-22T07:28:20;11.60;;;4.45;;
36691;SDS011;22678;52.052;4.242;2024-03-22T07:30:46;16.30;;;5.03;;
36691;SDS011;22678;52.052;4.242;2024-03-22T07:33:12;18.48;;;6.00;;
36691;SDS011;22678;52.052;4.242;2024-03-22T07:35:42;19.85;;;5.00;;
36691;SDS011;22678;52.052;4.242;2024-03-22T07:38:08;16.42;;;3.65;;
36691;SDS011;22678;52.052;4.242;2024-03-22T07:40:33;15.13;;;6.45;;
36691;SDS011;22678;52.052;4.242;2024-03-22T07:42:59;16.10;;;5.68;;
36691;SDS011;22678;52.052;4.242;2024-03-22T07:45:24;13.80;;;4.15;;
36691;SDS011;22678;52.052;4.242;2024-03-22T07:47:50;13.05;;;4.20;;
36691;SDS011;22678;52.052;4.242;2024-03-22T07:50:15;20.00;;;4.30;;
36691;SDS011;22678;52.052;4.242;2024-03-22T07:52:40;15.15;;;4.57;;
36691;SDS011;22678;52.052;4.242;2024-03-22T07:55:06;14.77;;;5.18;;
36691;SDS011;22678;52.052;4.242;2024-03-22T07:57:32;15.57;;;6.43;;
36691;SDS011;22678;52.052;4.242;2024-03-22T07:59:57;18.77;;;4.30;;
36691;SDS011;22678;52.052;4.242;2024-03-22T08:02:23;15.45;;;3.83;;
36691;SDS011;22678;52.052;4.242;2024-03-22T08:04:49;22.45;;;6.05;;
36691;SDS011;22678;52.052;4.242;2024-03-22T08:07:14;33.15;;;5.97;;
36691;SDS011;22678;52.052;4.242;2024-03-22T08:09:40;19.08;;;5.60;;
36691;SDS011;22678;52.052;4.242;2024-03-22T08:12:05;14.55;;;4.93;;
36691;SDS011;22678;52.052;4.242;2024-03-22T08:14:31;13.32;;;5.43;;
36691;SDS011;22678;52.052;4.242;2024-03-22T08:16:57;15.05;;;6.38;;
36691;SDS011;22678;52.052;4.242;2024-03-22T08:19:22;18.70;;;3.22;;
36691;SDS011;22678;52.052;4.242;2024-03-22T08:21:48;20.45;;;6.43;;
36691;SDS011;22678;52.052;4.242;2024-03-22T08:24:14;27.15;;;9.13;;
36691;SDS011;22678;52.052;4.242;2024-03-22T08:26:39;16.63;;;5.15;;
36691;SDS011;22678;52.052;4.242;2024-03-22T08:29:04;23.73;;;5.38;;
36691;SDS011;22678;52.052;4.242;2024-03-22T08:31:30;13.50;;;3.88;;
36691;SDS011;22678;52.052;4.242;2024-03-22T08:33:55;27.77;;;8.75;;
36691;SDS011;22678;52.052;4.242;2024-03-22T08:36:21;21.77;;;5.13;;
36691;SDS011;22678;52.052;4.242;2024-03-22T08:38:48;16.80;;;3.70;;
36691;SDS011;22678;52.052;4.242;2024-03-22T08:41:13;30.15;;;6.25;;
36691;SDS011;22678;52.052;4.242;2024-03-22T08:43:39;21.50;;;6.13;;
36691;SDS011;22678;52.052;4.242;2024-03-22T08:46:04;23.35;;;6.97;;
36691;SDS011;22678;52.052;4.242;2024-03-22T08:48:29;15.20;;;5.47;;
36691;SDS011;22678;52.052;4.242;2024-03-22T08:50:55;24.40;;;5.25;;
36691;SDS011;22678;52.052;4.242;2024-03-22T08:53:20;16.25;;;5.50;;
36691;SDS011;22678;52.052;4.242;2024-03-22T08:55:46;21.20;;;7.13;;
36691;SDS011;22678;52.052;4.242;2024-03-22T08:58:13;21.13;;;4.85;;
36691;SDS011;22678;52.052;4.242;2024-03-22T09:00:39;13.07;;;6.40;;
36691;SDS011;22678;52.052;4.242;2024-03-22T09:03:06;18.42;;;5.18;;
36691;SDS011;22678;52.052;4.242;2024-03-22T09:05:31;14.80;;;7.07;;
36691;SDS011;22678;52.052;4.242;2024-03-22T09:07:58;15.38;;;5.43;;
36691;SDS011;22678;52.052;4.242;2024-03-22T09:10:24;19.90;;;6.57;;
36691;SDS011;22678;52.052;4.242;2024-03-22T09:12:49;18.45;;;6.93;;
36691;SDS011;22678;52.052;4.242;2024-03-22T09:15:14;11.77;;;4.05;;
36691;SDS011;22678;52.052;4.242;2024-03-22T09:17:39;14.77;;;4.88;;
36691;SDS011;22678;52.052;4.242;2024-03-22T09:20:05;21.65;;;6.93;;
36691;SDS011;22678;52.052;4.242;2024-03-22T09:22:32;27.58;;;7.63;;
36691;SDS011;22678;52.052;4.242;2024-03-22T09:24:58;17.08;;;6.90;;
36691;SDS011;22678;52.052;4.242;2024-03-22T09:27:24;16.80;;;5.32;;
36691;SDS011;22678;52.052;4.242;2024-03-22T09:29:49;14.75;;;4.97;;
36691;SDS011;22678;52.052;4.242;2024-03-22T09:32:14;18.80;;;6.43;;
36691;SDS011;22678;52.052;4.242;2024-03-22T09:34:40;11.40;;;5.00;;
36691;SDS011;22678;52.052;4.242;2024-03-22T09:37:05;15.77;;;5.95;;
36691;SDS011;22678;52.052;4.242;2024-03-22T09:39:31;17.15;;;7.32;;
36691;SDS011;22678;52.052;4.242;2024-03-22T09:41:57;19.50;;;5.57;;
36691;SDS011;22678;52.052;4.242;2024-03-22T09:44:23;18.45;;;6.07;;
36691;SDS011;22678;52.052;4.242;2024-03-22T09:46:52;17.08;;;6.22;;
36691;SDS011;22678;52.052;4.242;2024-03-22T09:49:18;16.90;;;6.43;;
36691;SDS011;22678;52.052;4.242;2024-03-22T09:51:43;20.33;;;6.78;;
36691;SDS011;22678;52.052;4.242;2024-03-22T09:54:12;15.10;;;6.20;;
36691;SDS011;22678;52.052;4.242;2024-03-22T09:56:41;20.50;;;5.82;;
36691;SDS011;22678;52.052;4.242;2024-03-22T09:59:07;23.58;;;6.85;;
36691;SDS011;22678;52.052;4.242;2024-03-22T10:01:34;15.93;;;5.75;;
36691;SDS011;22678;52.052;4.242;2024-03-22T10:04:00;18.20;;;5.85;;
36691;SDS011;22678;52.052;4.242;2024-03-22T10:06:25;11.80;;;5.90;;
36691;SDS011;22678;52.052;4.242;2024-03-22T10:08:51;23.35;;;6.95;;
36691;SDS011;22678;52.052;4.242;2024-03-22T10:11:16;19.48;;;6.38;;
36691;SDS011;22678;52.052;4.242;2024-03-22T10:13:41;20.88;;;6.78;;
36691;SDS011;22678;52.052;4.242;2024-03-22T10:16:07;18.45;;;7.22;;
36691;SDS011;22678;52.052;4.242;2024-03-22T10:18:33;16.95;;;6.18;;
36691;SDS011;22678;52.052;4.242;2024-03-22T10:21:02;22.10;;;9.38;;
36691;SDS011;22678;52.052;4.242;2024-03-22T10:23:29;18.65;;;7.47;;
36691;SDS011;22678;52.052;4.242;2024-03-22T10:25:58;18.75;;;6.22;;
36691;SDS011;22678;52.052;4.242;2024-03-22T10:28:24;21.63;;;9.25;;
36691;SDS011;22678;52.052;4.242;2024-03-22T10:30:51;17.48;;;6.22;;
36691;SDS011;22678;52.052;4.242;2024-03-22T10:33:20;24.30;;;8.48;;
36691;SDS011;22678;52.052;4.242;2024-03-22T10:35:54;19.98;;;7.88;;
36691;SDS011;22678;52.052;4.242;2024-03-22T10:38:20;19.60;;;7.03;;
36691;SDS011;22678;52.052;4.242;2024-03-22T10:40:46;17.10;;;8.15;;
36691;SDS011;22678;52.052;4.242;2024-03-22T10:43:15;15.52;;;6.00;;
36691;SDS011;22678;52.052;4.242;2024-03-22T10:45:42;29.45;;;9.82;;
36691;SDS011;22678;52.052;4.242;2024-03-22T10:48:11;17.20;;;8.02;;
36691;SDS011;22678;52.052;4.242;2024-03-22T10:50:39;23.98;;;8.25;;
36691;SDS011;22678;52.052;4.242;2024-03-22T10:53:09;17.48;;;7.13;;
36691;SDS011;22678;52.052;4.242;2024-03-22T10:55:41;20.95;;;8.32;;
36691;SDS011;22678;52.052;4.242;2024-03-22T10:58:14;19.33;;;9.27;;
36691;SDS011;22678;52.052;4.242;2024-03-22T11:00:43;14.38;;;8.75;;
36691;SDS011;22678;52.052;4.242;2024-03-22T11:03:09;26.77;;;8.50;;
36691;SDS011;22678;52.052;4.242;2024-03-22T11:05:44;21.13;;;8.20;;
36691;SDS011;22678;52.052;4.242;2024-03-22T11:08:10;18.13;;;9.93;;
36691;SDS011;22678;52.052;4.242;2024-03-22T11:10:35;18.77;;;7.43;;
36691;SDS011;22678;52.052;4.242;2024-03-22T11:13:05;17.88;;;9.52;;
36691;SDS011;22678;52.052;4.242;2024-03-22T11:15:32;19.13;;;10.35;;
36691;SDS011;22678;52.052;4.242;2024-03-22T11:17:58;24.30;;;9.20;;
36691;SDS011;22678;52.052;4.242;2024-03-22T11:20:24;17.88;;;9.10;;
36691;SDS011;22678;52.052;4.242;2024-03-22T11:22:53;26.10;;;10.07;;
36691;SDS011;22678;52.052;4.242;2024-03-22T11:25:19;17.85;;;7.60;;
36691;SDS011;22678;52.052;4.242;2024-03-22T11:27:45;28.02;;;7.88;;
36691;SDS011;22678;52.052;4.242;2024-03-22T11:30:11;24.35;;;8.05;;
36691;SDS011;22678;52.052;4.242;2024-03-22T11:32:37;22.35;;;7.28;;
36691;SDS011;22678;52.052;4.242;2024-03-22T11:35:12;29.05;;;9.30;;
36691;SDS011;22678;52.052;4.242;2024-03-22T11:37:38;20.05;;;8.70;;
36691;SDS011;22678;52.052;4.242;2024-03-22T11:40:05;24.33;;;7.30;;
36691;SDS011;22678;52.052;4.242;2024-03-22T11:42:34;24.42;;;7.65;;
36691;SDS011;22678;52.052;4.242;2024-03-22T11:45:00;19.17;;;8.05;;
36691;SDS011;22678;52.052;4.242;2024-03-22T11:47:27;15.50;;;7.75;;
36691;SDS011;22678;52.052;4.242;2024-03-22T11:49:53;19.42;;;8.98;;
36691;SDS011;22678;52.052;4.242;2024-03-22T11:52:23;19.52;;;6.45;;
36691;SDS011;22678;52.052;4.242;2024-03-22T11:54:52;20.20;;;8.95;;
36691;SDS011;22678;52.052;4.242;2024-03-22T11:57:18;17.65;;;9.48;;
36691;SDS011;22678;52.052;4.242;2024-03-22T11:59:44;14.05;;;5.72;;
36691;SDS011;22678;52.052;4.242;2024-03-22T12:02:09;17.67;;;8.02;;
36691;SDS011;22678;52.052;4.242;2024-03-22T12:04:35;28.65;;;8.88;;
36691;SDS011;22678;52.052;4.242;2024-03-22T12:07:00;19.55;;;6.65;;
36691;SDS011;22678;52.052;4.242;2024-03-22T12:09:25;18.02;;;8.85;;
36691;SDS011;22678;52.052;4.242;2024-03-22T12:11:51;17.98;;;6.90;;
36691;SDS011;22678;52.052;4.242;2024-03-22T12:14:16;25.10;;;7.93;;
36691;SDS011;22678;52.052;4.242;2024-03-22T12:16:41;19.00;;;8.27;;
36691;SDS011;22678;52.052;4.242;2024-03-22T12:19:06;18.85;;;7.18;;
36691;SDS011;22678;52.052;4.242;2024-03-22T12:21:32;14.45;;;6.03;;
36691;SDS011;22678;52.052;4.242;2024-03-22T12:23:57;18.98;;;7.05;;
36691;SDS011;22678;52.052;4.242;2024-03-22T12:26:22;13.07;;;6.90;;
36691;SDS011;22678;52.052;4.242;2024-03-22T12:28:48;21.70;;;7.20;;
36691;SDS011;22678;52.052;4.242;2024-03-22T12:31:13;24.10;;;6.60;;
36691;SDS011;22678;52.052;4.242;2024-03-22T12:33:38;23.20;;;8.88;;
36691;SDS011;22678;52.052;4.242;2024-03-22T12:36:04;22.90;;;8.27;;
36691;SDS011;22678;52.052;4.242;2024-03-22T12:38:29;23.25;;;9.65;;
36691;SDS011;22678;52.052;4.242;2024-03-22T12:40:55;16.73;;;7.20;;
36691;SDS011;22678;52.052;4.242;2024-03-22T12:43:21;22.38;;;9.23;;
36691;SDS011;22678;52.052;4.242;2024-03-22T12:45:46;23.08;;;7.85;;
36691;SDS011;22678;52.052;4.242;2024-03-22T12:48:11;29.20;;;10.77;;
36691;SDS011;22678;52.052;4.242;2024-03-22T12:50:37;20.90;;;8.25;;
36691;SDS011;22678;52.052;4.242;2024-03-22T12:53:02;15.95;;;8.00;;
36691;SDS011;22678;52.052;4.242;2024-03-22T12:55:29;19.25;;;8.07;;
36691;SDS011;22678;52.052;4.242;2024-03-22T12:57:56;23.08;;;7.88;;
36691;SDS011;22678;52.052;4.242;2024-03-22T13:00:21;17.85;;;7.82;;
36691;SDS011;22678;52.052;4.242;2024-03-22T13:02:47;17.92;;;7.10;;
36691;SDS011;22678;52.052;4.242;2024-03-22T13:05:12;22.80;;;8.43;;
36691;SDS011;22678;52.052;4.242;2024-03-22T13:07:40;19.63;;;6.30;;
36691;SDS011;22678;52.052;4.242;2024-03-22T13:10:05;17.77;;;8.68;;
36691;SDS011;22678;52.052;4.242;2024-03-22T13:12:31;23.67;;;10.13;;
36691;SDS011;22678;52.052;4.242;2024-03-22T13:14:58;16.15;;;7.30;;
36691;SDS011;22678;52.052;4.242;2024-03-22T13:17:24;19.48;;;7.20;;
36691;SDS011;22678;52.052;4.242;2024-03-22T13:19:49;22.52;;;8.35;;
36691;SDS011;22678;52.052;4.242;2024-03-22T13:22:15;27.40;;;10.90;;
36691;SDS011;22678;52.052;4.242;2024-03-22T13:24:43;21.98;;;7.90;;
36691;SDS011;22678;52.052;4.242;2024-03-22T13:27:09;19.50;;;7.88;;
36691;SDS011;22678;52.052;4.242;2024-03-22T13:29:34;22.65;;;7.85;;
36691;SDS011;22678;52.052;4.242;2024-03-22T13:32:00;22.23;;;9.10;;
36691;SDS011;22678;52.052;4.242;2024-03-22T13:34:25;27.48;;;9.45;;
36691;SDS011;22678;52.052;4.242;2024-03-22T13:36:51;22.00;;;7.47;;
36691;SDS011;22678;52.052;4.242;2024-03-22T13:39:17;17.30;;;8.52;;
36691;SDS011;22678;52.052;4.242;2024-03-22T13:41:42;22.90;;;9.45;;
36691;SDS011;22678;52.052;4.242;2024-03-22T13:44:07;28.13;;;10.48;;
36691;SDS011;22678;52.052;4.242;2024-03-22T13:46:33;22.77;;;7.78;;
36691;SDS011;22678;52.052;4.242;2024-03-22T13:49:01;19.50;;;9.32;;
36691;SDS011;22678;52.052;4.242;2024-03-22T13:51:27;24.20;;;10.02;;
36691;SDS011;22678;52.052;4.242;2024-03-22T13:53:53;16.35;;;8.93;;
36691;SDS011;22678;52.052;4.242;2024-03-22T13:56:18;16.95;;;8.88;;
36691;SDS011;22678;52.052;4.242;2024-03-22T13:58:43;20.20;;;10.27;;
36691;SDS011;22678;52.052;4.242;2024-03-22T14:01:09;23.30;;;10.73;;
36691;SDS011;22678;52.052;4.242;2024-03-22T14:03:36;24.92;;;9.90;;
36691;SDS011;22678;52.052;4.242;2024-03-22T14:06:01;20.35;;;9.38;;
36691;SDS011;22678;52.052;4.242;2024-03-22T14:08:27;22.58;;;9.23;;
36691;SDS011;22678;52.052;4.242;2024-03-22T14:10:53;24.42;;;9.95;;
36691;SDS011;22678;52.052;4.242;2024-03-22T14:13:18;19.15;;;9.00;;
36691;SDS011;22678;52.052;4.242;2024-03-22T14:15:43;23.20;;;10.23;;
36691;SDS011;22678;52.052;4.242;2024-03-22T14:18:09;20.30;;;9.60;;
36691;SDS011;22678;52.052;4.242;2024-03-22T14:20:34;28.55;;;10.18;;
36691;SDS011;22678;52.052;4.242;2024-03-22T14:23:00;31.85;;;10.82;;
36691;SDS011;22678;52.052;4.242;2024-03-22T14:25:25;20.48;;;10.68;;